Time;durP1;ratioP1;P1;durP2;ratioP2;P2;SDS_P1;SDS_P2;PMS_P1;PMS_P2;Temp;Humidity;BMP_temperature;BMP_pressure;BME280_temperature;BME280_humidity;BME280_pressure;Samples;Min_cycle;Max_cycle;Signal;HPM_P1;HPM_P2
2021/11/15 00:06:28;;;;;;;1999.90;999.90;;;;;;;8.33;69.76;102507.66;15568358;28;20069;-59
2021/11/15 00:14:01;;;;;;;1999.90;999.90;;;;;;;8.00;70.73;102503.38;15595387;28;20046;-62
2021/11/15 00:21:34;;;;;;;1999.90;999.90;;;;;;;8.35;69.76;102506.34;15571961;28;20041;-62
2021/11/15 00:29:07;;;;;;;1999.90;999.90;;;;;;;8.18;70.34;102493.72;15585348;28;20434;-62
2021/11/15 00:36:41;;;;;;;1999.90;999.90;;;;;;;8.43;69.71;102504.09;15589992;28;20041;-59
2021/11/15 00:44:14;;;;;;;1999.90;999.90;;;;;;;8.41;69.77;102504.38;15576629;28;20041;-62
2021/11/15 00:51:48;;;;;;;1999.90;999.90;;;;;;;8.37;69.89;102506.06;15567711;28;20144;-61
2021/11/15 00:59:20;;;;;;;1999.90;999.90;;;;;;;8.28;69.74;102505.72;15589927;28;20054;-62
2021/11/15 01:06:56;;;;;;;1999.90;999.90;;;;;;;8.56;68.86;102498.84;15602040;28;20046;-60
2021/11/15 01:14:28;;;;;;;1999.90;999.90;;;;;;;8.22;69.97;102503.19;15590773;28;20580;-61
2021/11/15 01:22:03;;;;;;;1999.90;999.90;;;;;;;8.64;68.97;102506.63;15588304;28;20453;-60
2021/11/15 01:29:36;;;;;;;1999.90;999.90;;;;;;;8.24;69.35;102487.91;15622075;22;20050;-60
2021/11/15 01:37:10;;;;;;;1999.90;999.90;;;;;;;8.32;69.56;102498.47;15635990;28;20404;-61
2021/11/15 01:44:42;;;;;;;1999.90;999.90;;;;;;;8.41;69.18;102495.19;15639346;28;20388;-61
2021/11/15 01:52:17;;;;;;;1999.90;999.90;;;;;;;8.19;69.46;102489.84;15646416;28;20485;-61
2021/11/15 01:59:50;;;;;;;1999.90;999.90;;;;;;;8.05;69.64;102495.91;15639101;28;20121;-60
2021/11/15 02:07:24;;;;;;;1999.90;999.90;;;;;;;7.98;70.36;102489.78;15662020;28;21207;-61
2021/11/15 02:14:57;;;;;;;1999.90;999.90;;;;;;;7.95;70.24;102495.88;15642416;28;20057;-60
2021/11/15 02:22:31;;;;;;;1999.90;999.90;;;;;;;8.19;69.93;102487.88;15594594;28;20384;-60
2021/11/15 02:30:11;;;;;;;1999.90;999.90;;;;;;;8.11;69.98;102477.28;15624059;28;20377;-59
2021/11/15 02:37:46;;;;;;;1999.90;999.90;;;;;;;8.00;70.55;102473.66;15637059;28;20053;-61
2021/11/15 02:45:20;;;;;;;1999.90;999.90;;;;;;;8.05;70.28;102475.63;15614553;28;20205;-60
2021/11/15 02:52:56;;;;;;;1999.90;999.90;;;;;;;8.06;70.50;102471.72;15652594;28;20041;-60
2021/11/15 03:00:37;;;;;;;1999.90;999.90;;;;;;;8.22;70.38;102478.97;15659670;28;20046;-60
2021/11/15 03:08:12;;;;;;;1999.90;999.90;;;;;;;8.16;70.52;102488.44;15622948;28;20423;-61
2021/11/15 03:15:48;;;;;;;1999.90;999.90;;;;;;;8.06;70.62;102483.69;15630468;28;20052;-60
2021/11/15 03:23:29;;;;;;;1999.90;999.90;;;;;;;8.17;70.56;102484.56;15640811;28;20053;-60
2021/11/15 03:31:04;;;;;;;1999.90;999.90;;;;;;;8.09;70.98;102490.63;15627630;28;20156;-60
2021/11/15 03:38:38;;;;;;;1999.90;999.90;;;;;;;8.08;71.09;102486.19;15635286;28;20061;-60
2021/11/15 03:46:11;;;;;;;1999.90;999.90;;;;;;;8.17;70.72;102483.72;15587422;28;20059;-61
2021/11/15 03:53:46;;;;;;;1999.90;999.90;;;;;;;7.98;71.63;102480.59;15633011;28;20045;-60
2021/11/15 04:01:21;;;;;;;1999.90;999.90;;;;;;;7.91;71.85;102478.06;15631116;28;20079;-61
2021/11/15 04:08:58;;;;;;;1999.90;999.90;;;;;;;7.99;71.92;102468.38;15646550;28;20045;-61
2021/11/15 04:16:30;;;;;;;1999.90;999.90;;;;;;;8.07;71.76;102473.41;15656997;28;20095;-60
2021/11/15 04:24:05;;;;;;;1999.90;999.90;;;;;;;7.94;72.10;102479.47;15615889;28;20499;-61
2021/11/15 04:31:38;;;;;;;1999.90;999.90;;;;;;;7.80;72.61;102468.84;15667531;28;20098;-61
2021/11/15 04:39:12;;;;;;;1999.90;999.90;;;;;;;8.05;71.87;102473.69;15659781;28;20052;-60
2021/11/15 04:46:44;;;;;;;1999.90;999.90;;;;;;;7.81;73.17;102466.91;15657442;28;20067;-61
2021/11/15 04:54:20;;;;;;;1999.90;999.90;;;;;;;7.84;73.23;102463.59;15663561;28;20407;-59
2021/11/15 05:01:57;;;;;;;1999.90;999.90;;;;;;;7.87;73.04;102468.59;15659200;28;20049;-60
2021/11/15 05:09:31;;;;;;;1999.90;999.90;;;;;;;7.90;73.25;102465.28;15635257;28;20049;-61
2021/11/15 05:17:04;;;;;;;1999.90;999.90;;;;;;;7.79;73.70;102464.41;15600702;28;20051;-61
2021/11/15 05:24:38;;;;;;;1999.90;999.90;;;;;;;8.00;73.60;102470.03;15616031;28;20051;-61
2021/11/15 05:32:10;;;;;;;1999.90;999.90;;;;;;;7.97;73.72;102470.59;15627161;28;20053;-61
2021/11/15 05:39:45;;;;;;;1999.90;999.90;;;;;;;7.97;73.77;102470.59;15622944;28;20041;-60
2021/11/15 05:47:18;;;;;;;1999.90;999.90;;;;;;;7.79;74.26;102469.13;15611192;28;20429;-62
2021/11/15 05:54:52;;;;;;;1999.90;999.90;;;;;;;7.93;74.50;102473.09;15623474;28;20410;-62
2021/11/15 06:02:25;;;;;;;1999.90;999.90;;;;;;;7.74;74.58;102469.13;15656670;28;20504;-62
2021/11/15 06:09:59;;;;;;;1999.90;999.90;;;;;;;7.91;74.23;102480.84;15634660;28;20063;-60
2021/11/15 06:17:31;;;;;;;1999.90;999.90;;;;;;;7.84;74.67;102493.34;15595271;28;20414;-61
2021/11/15 06:25:07;;;;;;;1999.90;999.90;;;;;;;7.84;74.64;102490.56;15599088;28;20040;-61
2021/11/15 06:32:40;;;;;;;1999.90;999.90;;;;;;;7.82;74.99;102500.00;15646761;28;20053;-61
2021/11/15 06:40:16;;;;;;;1999.90;999.90;;;;;;;7.91;75.10;102496.69;15615163;28;20113;-62
2021/11/15 06:47:51;;;;;;;1999.90;999.90;;;;;;;7.84;75.30;102498.91;15638207;28;20076;-61
2021/11/15 06:55:25;;;;;;;1999.90;999.90;;;;;;;7.95;74.94;102503.38;15620666;28;20116;-60
2021/11/15 07:02:59;;;;;;;1999.90;999.90;;;;;;;7.79;75.56;102502.47;15619965;28;20169;-63
2021/11/15 07:10:34;;;;;;;1999.90;999.90;;;;;;;7.71;75.65;102502.97;15619188;28;20067;-60
2021/11/15 07:18:07;;;;;;;1999.90;999.90;;;;;;;7.80;75.68;102495.81;15619077;28;20048;-60
2021/11/15 07:25:41;;;;;;;1999.90;999.90;;;;;;;8.03;74.92;102509.25;15617628;28;20487;-60
2021/11/15 07:33:15;;;;;;;1999.90;999.90;;;;;;;7.90;74.69;102508.91;15753377;22;20127;-64
2021/11/15 07:40:49;;;;;;;;;;;;;;;8.07;74.40;102513.16;15715921;28;20052;-62
2021/11/15 07:48:21;;;;;;;1999.90;999.90;;;;;;;8.06;74.44;102513.44;15705225;28;19926;-64
2021/11/15 07:55:55;;;;;;;1999.90;999.90;;;;;;;8.14;73.64;102506.53;15732246;28;20049;-62
2021/11/15 08:03:28;;;;;;;1999.90;999.90;;;;;;;7.97;74.15;102506.72;15683937;28;20049;-63
2021/11/15 08:11:04;;;;;;;1999.90;999.90;;;;;;;8.25;73.84;102505.44;15683564;28;20055;-63
2021/11/15 08:18:37;;;;;;;1999.90;999.90;;;;;;;8.46;72.92;102496.06;15744059;28;20040;-61
2021/11/15 08:26:38;;;;;;;1999.90;999.90;;;;;;;8.62;72.33;102506.09;15745238;28;20045;-62
2021/11/15 08:34:12;;;;;;;1999.90;999.90;;;;;;;8.25;72.66;102491.53;15743266;28;20075;-62
2021/11/15 08:41:58;;;;;;;1999.90;999.90;;;;;;;8.18;73.68;102486.22;15743187;28;20053;-63
2021/11/15 08:49:33;;;;;;;1999.90;999.90;;;;;;;8.25;73.42;102488.75;15708328;28;20041;-63
2021/11/15 08:57:08;;;;;;;1999.90;999.90;;;;;;;8.43;72.69;102495.75;15679945;28;20577;-60
2021/11/15 09:04:41;;;;;;;1999.90;999.90;;;;;;;8.11;73.79;102505.94;15679677;28;20481;-64
2021/11/15 09:12:16;;;;;;;1999.90;999.90;;;;;;;8.42;72.39;102505.22;15662436;28;20036;-61
2021/11/15 09:19:48;;;;;;;1999.90;999.90;;;;;;;8.07;73.49;102510.38;15679606;28;20496;-64
2021/11/15 09:27:22;;;;;;;1999.90;999.90;;;;;;;8.28;72.81;102516.84;15678715;28;20045;-62
2021/11/15 09:34:55;;;;;;;1999.90;999.90;;;;;;;8.25;73.20;102516.56;15678476;28;20040;-62
2021/11/15 09:42:29;;;;;;;1999.90;999.90;;;;;;;8.65;71.88;102515.84;15660941;28;20098;-61
2021/11/15 09:50:02;;;;;;;1999.90;999.90;;;;;;;8.42;72.30;102521.91;15698443;28;20516;-64
2021/11/15 09:57:39;;;;;;;1999.90;999.90;;;;;;;8.30;72.77;102508.22;15739964;28;20063;-63
2021/11/15 10:05:11;;;;;;;1999.90;999.90;;;;;;;8.00;73.79;102522.84;15739251;28;20041;-64
2021/11/15 10:13:02;;;;;;;1999.90;999.90;;;;;;;8.01;73.99;102517.03;15721881;28;20056;-63
2021/11/15 10:20:45;;;;;;;1999.90;999.90;;;;;;;7.75;75.05;102504.13;15740718;28;20037;-62
2021/11/15 10:28:22;;;;;;;1999.90;999.90;;;;;;;8.02;74.46;102495.59;15739394;28;20126;-63
2021/11/15 10:35:55;;;;;;;1999.90;999.90;;;;;;;8.24;73.90;102501.81;15738706;28;20045;-64
2021/11/15 10:43:33;;;;;;;1999.90;999.90;;;;;;;8.17;74.48;102503.19;15720119;28;20460;-65
2021/11/15 10:51:07;;;;;;;1999.90;999.90;;;;;;;8.34;73.26;102509.34;15690683;28;20518;-64
2021/11/15 10:58:43;;;;;;;1999.90;999.90;;;;;;;8.13;73.53;102496.47;15675224;28;20271;-64
2021/11/15 11:06:16;;;;;;;1999.90;999.90;;;;;;;7.95;74.00;102486.72;15641212;28;20367;-63
2021/11/15 11:13:54;;;;;;;1999.90;999.90;;;;;;;8.15;73.85;102488.72;15657044;28;20521;-63
2021/11/15 11:29:23;;;;;;;1999.90;999.90;;;;;;;8.17;74.34;102473.44;15668030;28;20525;-64
2021/11/15 11:36:56;;;;;;;1999.90;999.90;;;;;;;7.88;75.06;102470.28;15685304;28;20110;-63
2021/11/15 11:44:31;;;;;;;1999.90;999.90;;;;;;;7.91;75.72;102471.66;15684668;28;20041;-63
2021/11/15 11:52:06;;;;;;;1999.90;999.90;;;;;;;7.67;77.11;102469.34;15739921;28;20051;-63
2021/11/15 11:59:57;;;;;;;1999.90;999.90;;;;;;;7.79;77.14;102456.06;15744060;28;20056;-65
2021/11/15 12:07:33;;;;;;;1999.90;999.90;;;;;;;7.94;77.26;102443.34;15652551;28;20037;-62
2021/11/15 12:15:29;;;;;;;1999.90;999.90;;;;;;;7.68;78.86;102447.97;15705702;28;20040;-63
2021/11/15 12:23:12;;;;;;;1999.90;999.90;;;;;;;7.81;78.46;102433.53;15744978;28;20057;-61
2021/11/15 12:30:48;;;;;;;;;;;;;;;7.68;78.72;102440.44;15620350;28;20047;-61
2021/11/15 12:38:49;;;;;;;1999.90;999.90;;;;;;;7.82;78.15;102432.47;15619993;28;20031;-61
2021/11/15 12:46:23;;;;;;;1999.90;999.90;;;;;;;7.71;78.46;102422.41;15687894;28;20049;-61
2021/11/15 12:53:56;;;;;;;1999.90;999.90;;;;;;;7.86;77.81;102429.97;15725645;28;20540;-61
2021/11/15 13:01:29;;;;;;;1999.90;999.90;;;;;;;8.00;76.14;102433.88;15742309;28;20044;-64
2021/11/15 13:09:03;;;;;;;1999.90;999.90;;;;;;;7.94;75.93;102430.28;15742326;28;20052;-64
2021/11/15 13:16:37;;;;;;;1999.90;999.90;;;;;;;8.14;74.92;102431.44;15704832;28;20434;-64
2021/11/15 13:24:13;;;;;;;1999.90;999.90;;;;;;;8.00;75.15;102411.66;15645760;28;20084;-62
2021/11/15 13:31:48;;;;;;;1999.90;999.90;;;;;;;8.11;73.99;102405.81;15662368;28;20044;-61
2021/11/15 13:39:22;;;;;;;1999.90;999.90;;;;;;;8.20;73.97;102400.56;15679082;28;20041;-60
2021/11/15 13:46:56;;;;;;;1999.90;999.90;;;;;;;8.05;73.63;102409.72;15676432;28;20056;-57
2021/11/15 13:54:28;;;;;;;1999.90;999.90;;;;;;;7.98;73.82;102408.31;15659940;28;20049;-58
2021/11/15 14:02:02;;;;;;;1999.90;999.90;;;;;;;8.11;73.20;102414.16;15657020;28;20580;-59
2021/11/15 14:09:36;;;;;;;1999.90;999.90;;;;;;;8.23;72.60;102388.03;15602066;28;20030;-59
2021/11/15 14:17:10;;;;;;;1999.90;999.90;;;;;;;8.28;72.30;102390.84;15658618;28;20069;-59
2021/11/15 14:24:46;;;;;;;1999.90;999.90;;;;;;;8.35;71.84;102383.94;15642240;28;20041;-59
2021/11/15 14:32:19;;;;;;;1999.90;999.90;;;;;;;8.38;71.66;102385.31;15688091;28;20124;-59
2021/11/15 14:39:52;;;;;;;1999.90;999.90;;;;;;;8.30;71.91;102397.78;15598004;28;20045;-59
2021/11/15 14:47:27;;;;;;;1999.90;999.90;;;;;;;8.18;71.97;102402.78;15581390;28;20076;-59
2021/11/15 14:55:00;;;;;;;1999.90;999.90;;;;;;;8.20;72.23;102408.91;15606008;28;20037;-60
2021/11/15 15:02:34;;;;;;;1999.90;999.90;;;;;;;8.22;72.42;102403.91;15608583;28;20037;-62
2021/11/15 15:10:12;;;;;;;1999.90;999.90;;;;;;;8.08;72.50;102392.47;15625500;28;20042;-59
2021/11/15 15:17:52;;;;;;;1999.90;999.90;;;;;;;8.08;72.59;102392.47;15682428;28;20053;-57
2021/11/15 15:25:25;;;;;;;1999.90;999.90;;;;;;;7.89;73.15;102396.88;15748262;28;20063;-59
2021/11/15 15:32:59;;;;;;;1999.90;999.90;;;;;;;7.91;73.15;102388.28;15726691;28;20045;-62
2021/11/15 15:40:39;;;;;;;1999.90;999.90;;;;;;;7.79;73.63;102396.84;15626346;28;20048;-59
2021/11/15 15:48:17;;;;;;;1999.90;999.90;;;;;;;7.94;73.21;102396.91;15624247;28;20037;-60
2021/11/15 15:55:50;;;;;;;1999.90;999.90;;;;;;;7.93;73.51;102386.91;15625144;28;20048;-61
2021/11/15 16:03:26;;;;;;;1999.90;999.90;;;;;;;8.04;73.36;102384.97;15656396;28;20045;-61
2021/11/15 16:11:11;;;;;;;1999.90;999.90;;;;;;;7.87;73.87;102396.34;15672734;28;20510;-60
2021/11/15 16:18:45;;;;;;;1999.90;999.90;;;;;;;7.92;73.41;102399.13;15633533;28;20048;-64
2021/11/15 16:26:18;;;;;;;1999.90;999.90;;;;;;;7.69;74.21;102400.44;15703410;28;20114;-64
2021/11/15 16:33:52;;;;;;;1999.90;999.90;;;;;;;7.89;73.59;102393.28;15671774;28;20049;-64
2021/11/15 16:41:25;;;;;;;1999.90;999.90;;;;;;;7.89;73.41;102383.00;15659730;28;20041;-64
2021/11/15 16:48:59;;;;;;;1999.90;999.90;;;;;;;7.81;73.63;102384.38;15652228;28;20049;-62
2021/11/15 16:56:32;;;;;;;;;;;;;;;7.87;73.48;102393.56;15657912;28;20038;-65
2021/11/15 17:04:07;;;;;;;1999.90;999.90;;;;;;;7.64;74.01;102369.88;15654502;28;19920;-60
2021/11/15 17:11:39;;;;;;;1999.90;999.90;;;;;;;7.66;74.53;102370.44;15655094;28;20482;-63
2021/11/15 17:19:13;;;;;;;1999.90;999.90;;;;;;;7.52;74.34;102364.56;15627416;28;20525;-63
2021/11/15 17:26:46;;;;;;;1999.90;999.90;;;;;;;7.53;74.42;102359.84;15626969;28;20048;-63
2021/11/15 17:34:21;;;;;;;1999.90;999.90;;;;;;;7.67;73.67;102357.38;15687443;28;20049;-63
2021/11/15 17:41:54;;;;;;;1999.90;999.90;;;;;;;7.94;72.72;102360.78;15639234;28;20209;-60
2021/11/15 17:49:28;;;;;;;1999.90;999.90;;;;;;;7.94;72.99;102369.13;15602469;28;20131;-62
2021/11/15 17:57:09;;;;;;;1999.90;999.90;;;;;;;7.81;72.84;102367.72;15644736;28;20121;-61
2021/11/15 18:04:42;;;;;;;1999.90;999.90;;;;;;;7.73;73.37;102353.50;15612641;28;20492;-62
2021/11/15 18:12:15;;;;;;;1999.90;999.90;;;;;;;7.62;73.87;102349.88;15626895;28;20052;-62
2021/11/15 18:19:49;;;;;;;1999.90;999.90;;;;;;;7.55;73.73;102340.94;15631220;28;20484;-59
2021/11/15 18:27:21;;;;;;;1999.90;999.90;;;;;;;7.87;72.77;102318.50;15691467;28;20045;-58
2021/11/15 18:34:55;;;;;;;1999.90;999.90;;;;;;;7.72;73.15;102313.78;15682993;28;20571;-60
2021/11/15 18:42:28;;;;;;;1999.90;999.90;;;;;;;7.76;72.80;102309.31;15609453;28;20170;-60
2021/11/15 18:50:03;;;;;;;1999.90;999.90;;;;;;;7.70;73.34;102326.25;15717136;28;20029;-64
2021/11/15 18:57:36;;;;;;;1999.90;999.90;;;;;;;7.75;72.95;102321.56;15641153;28;20060;-63
2021/11/15 19:05:12;;;;;;;1999.90;999.90;;;;;;;7.87;72.75;102324.06;15650863;28;20454;-64
2021/11/15 19:12:50;;;;;;;1999.90;999.90;;;;;;;7.71;73.10;102316.81;15665006;28;20075;-65
2021/11/15 19:20:26;;;;;;;1999.90;999.90;;;;;;;7.72;73.10;102324.88;15642848;28;20534;-59
2021/11/15 19:27:59;;;;;;;1999.90;999.90;;;;;;;7.95;72.92;102317.97;15631486;28;20049;-62
2021/11/15 19:35:33;;;;;;;1999.90;999.90;;;;;;;7.92;72.64;102310.19;15686365;28;20041;-62
2021/11/15 19:43:06;;;;;;;1999.90;999.90;;;;;;;7.90;72.82;102322.66;15681284;28;20040;-61
2021/11/15 19:50:40;;;;;;;1999.90;999.90;;;;;;;8.07;72.50;102323.25;15684284;28;20049;-60
2021/11/15 19:58:15;;;;;;;1999.90;999.90;;;;;;;7.78;72.92;102343.22;15677516;28;20073;-61
2021/11/15 20:05:51;;;;;;;1999.90;999.90;;;;;;;8.02;72.32;102348.25;15682550;28;20656;-61
2021/11/15 20:13:24;;;;;;;1999.90;999.90;;;;;;;7.74;73.45;102346.84;15623510;28;20052;-57
2021/11/15 20:20:58;;;;;;;1999.90;999.90;;;;;;;7.84;72.82;102330.19;15615991;28;20059;-60
2021/11/15 20:28:31;;;;;;;1999.90;999.90;;;;;;;7.84;72.87;102338.53;15630431;28;20044;-63
2021/11/15 20:36:09;;;;;;;1999.90;999.90;;;;;;;8.03;72.15;102334.09;15629551;28;20069;-64
2021/11/15 20:43:42;;;;;;;1999.90;999.90;;;;;;;7.80;72.86;102326.28;15640919;28;20053;-64
2021/11/15 20:51:16;;;;;;;1999.90;999.90;;;;;;;7.96;72.96;102316.03;15641570;28;20041;-63
2021/11/15 20:58:49;;;;;;;1999.90;999.90;;;;;;;7.86;73.12;102310.44;15660130;28;20041;-61
2021/11/15 21:06:24;;;;;;;1999.90;999.90;;;;;;;7.87;73.34;102307.38;15635469;28;20041;-61
2021/11/15 21:13:56;;;;;;;1999.90;999.90;;;;;;;7.70;73.39;102298.47;15639653;28;20046;-62
2021/11/15 21:21:33;;;;;;;1999.90;999.90;;;;;;;8.11;72.97;102300.16;15639573;28;20049;-64
2021/11/15 21:29:06;;;;;;;1999.90;999.90;;;;;;;7.87;73.40;102301.81;15644473;28;20209;-63
2021/11/15 21:36:40;;;;;;;1999.90;999.90;;;;;;;7.86;73.30;102311.28;15655384;28;20049;-63
2021/11/15 21:44:13;;;;;;;1999.90;999.90;;;;;;;7.91;73.08;102290.97;15620568;28;20084;-63
2021/11/15 21:51:46;;;;;;;1999.90;999.90;;;;;;;7.70;74.27;102290.97;15670259;28;20294;-63
2021/11/15 21:59:19;;;;;;;1999.90;999.90;;;;;;;7.76;73.95;102292.66;15676707;28;20052;-63
2021/11/15 22:06:53;;;;;;;1999.90;999.90;;;;;;;7.87;73.88;102296.28;15665394;28;20117;-63
2021/11/15 22:14:27;;;;;;;1999.90;999.90;;;;;;;7.74;74.13;102292.09;15615271;28;20099;-62
2021/11/15 22:22:01;;;;;;;1999.90;999.90;;;;;;;7.66;74.56;102286.25;15652441;28;20045;-60
2021/11/15 22:29:33;;;;;;;1999.90;999.90;;;;;;;8.05;73.49;102287.38;15609259;28;20505;-61
2021/11/15 22:37:07;;;;;;;1999.90;999.90;;;;;;;7.76;74.53;102286.25;15640614;28;20129;-60
2021/11/15 22:44:40;;;;;;;;;;;;;;;7.87;74.30;102279.59;15654689;28;20049;-63
2021/11/15 22:52:14;;;;;;;1999.90;999.90;;;;;;;7.62;75.26;102276.81;15689584;28;20299;-61
2021/11/15 22:59:46;;;;;;;1999.90;999.90;;;;;;;7.80;74.68;102273.47;15658807;28;20084;-61
2021/11/15 23:07:20;;;;;;;1999.90;999.90;;;;;;;7.72;74.99;102271.25;15651532;28;20057;-60
2021/11/15 23:14:52;;;;;;;1999.90;999.90;;;;;;;7.75;74.50;102265.13;15604963;28;20072;-62
2021/11/15 23:22:26;;;;;;;1999.90;999.90;;;;;;;7.77;74.74;102262.91;15667940;28;20073;-61
2021/11/15 23:29:59;;;;;;;1999.90;999.90;;;;;;;7.68;75.20;102257.06;15643270;28;20083;-63
2021/11/15 23:37:32;;;;;;;1999.90;999.90;;;;;;;7.86;74.58;102255.69;15709640;28;20041;-61
2021/11/15 23:45:10;;;;;;;1999.90;999.90;;;;;;;7.66;75.21;102234.28;15660717;28;20060;-62
2021/11/15 23:52:44;;;;;;;1999.90;999.90;;;;;;;7.83;74.72;102228.47;15642635;28;20060;-63
